Time;durP1;ratioP1;P1;durP2;ratioP2;P2;SDS_P1;SDS_P2;PMS_P1;PMS_P2;Temp;Humidity;BMP_temperature;BMP_pressure;BME280_temperature;BME280_humidity;BME280_pressure;Samples;Min_cycle;Max_cycle;Signal;HPM_P1;HPM_P2
2022/03/05 00:00:30;;;;;;;24.42;13.95;;;;;;;;;;5044708;28;20104;-62
2022/03/05 00:02:55;;;;;;;26.75;15.68;;;;;;;;;;5047243;28;20064;-62
2022/03/05 00:05:21;;;;;;;25.65;16.20;;;;;;;;;;5053508;28;20044;-62
2022/03/05 00:07:46;;;;;;;24.83;14.68;;;;;;;;;;5047471;28;20531;-62
2022/03/05 00:10:12;;;;;;;24.42;15.05;;;;;;;;;;5063254;28;20029;-62
2022/03/05 00:12:37;;;;;;;24.20;15.27;;;;;;;;;;5060319;28;20463;-62
2022/03/05 00:15:03;;;;;;;24.88;14.90;;;;;;;;;;5066048;28;20043;-62
2022/03/05 00:17:28;;;;;;;21.80;13.63;;;;;;;;;;5065468;28;20028;-63
2022/03/05 00:19:56;;;;;;;25.40;15.23;;;;;;;;;;5066250;28;20024;-62
2022/03/05 00:22:22;;;;;;;29.20;16.20;;;;;;;;;;5064450;28;20356;-62
2022/03/05 00:24:47;;;;;;;27.38;16.25;;;;;;;;;;5064292;28;20479;-62
2022/03/05 00:27:13;;;;;;;28.55;16.48;;;;;;;;;;5061763;28;20347;-62
2022/03/05 00:29:38;;;;;;;26.00;15.07;;;;;;;;;;5048258;28;20032;-62
2022/03/05 00:32:04;;;;;;;24.63;14.98;;;;;;;;;;5066570;28;20036;-62
2022/03/05 00:34:29;;;;;;;28.40;15.68;;;;;;;;;;5065031;28;20389;-63
2022/03/05 00:36:54;;;;;;;27.20;14.95;;;;;;;;;;5067200;28;20021;-63
2022/03/05 00:39:19;;;;;;;27.33;15.95;;;;;;;;;;5063971;28;20082;-63
2022/03/05 00:41:44;;;;;;;27.05;15.32;;;;;;;;;;5063283;28;20033;-61
2022/03/05 00:44:10;;;;;;;26.73;15.02;;;;;;;;;;5067073;28;20047;-61
2022/03/05 00:46:35;;;;;;;27.67;16.17;;;;;;;;;;5064044;28;20294;-62
2022/03/05 00:49:00;;;;;;;26.67;15.82;;;;;;;;;;5065983;28;20040;-62
2022/03/05 00:51:25;;;;;;;24.00;14.15;;;;;;;;;;5065053;28;20020;-63
2022/03/05 00:53:51;;;;;;;26.38;15.20;;;;;;;;;;5066355;28;20112;-62
2022/03/05 00:56:17;;;;;;;28.98;16.65;;;;;;;;;;5061613;28;20498;-62
2022/03/05 00:58:43;;;;;;;26.40;16.02;;;;;;;;;;5064143;28;20213;-62
2022/03/05 01:01:08;;;;;;;27.08;16.02;;;;;;;;;;5064159;28;20028;-62
2022/03/05 01:03:33;;;;;;;28.23;15.35;;;;;;;;;;5064760;28;20800;-61
2022/03/05 01:05:59;;;;;;;29.00;16.10;;;;;;;;;;5063791;28;20479;-62
2022/03/05 01:08:24;;;;;;;25.27;13.75;;;;;;;;;;5045769;28;20495;-63
2022/03/05 01:10:49;;;;;;;28.83;16.00;;;;;;;;;;5059185;28;20738;-62
2022/03/05 01:13:15;;;;;;;26.38;15.40;;;;;;;;;;5064174;28;20024;-62
2022/03/05 01:15:41;;;;;;;25.67;14.75;;;;;;;;;;5063059;28;20784;-63
2022/03/05 01:18:06;;;;;;;29.65;16.10;;;;;;;;;;5063839;28;20115;-63
2022/03/05 01:20:31;;;;;;;31.02;16.73;;;;;;;;;;5063416;28;20471;-63
2022/03/05 01:22:57;;;;;;;31.42;16.13;;;;;;;;;;5063346;28;20491;-62
2022/03/05 01:25:23;;;;;;;26.23;15.63;;;;;;;;;;5059980;28;20491;-62
2022/03/05 01:27:48;;;;;;;30.30;16.83;;;;;;;;;;5044744;28;20020;-63
2022/03/05 01:30:13;;;;;;;28.33;16.48;;;;;;;;;;5064176;28;20031;-63
2022/03/05 01:32:39;;;;;;;31.27;17.33;;;;;;;;;;5062324;28;20297;-63
2022/03/05 01:35:04;;;;;;;30.13;17.17;;;;;;;;;;5065353;28;20029;-62
2022/03/05 01:37:30;;;;;;;30.52;17.20;;;;;;;;;;5062057;28;20035;-62
2022/03/05 01:39:55;;;;;;;28.48;15.98;;;;;;;;;;5062923;28;20084;-62
2022/03/05 01:42:21;;;;;;;32.80;17.05;;;;;;;;;;5060653;28;20382;-63
2022/03/05 01:44:46;;;;;;;31.52;16.63;;;;;;;;;;5046374;28;20324;-63
2022/03/05 01:47:12;;;;;;;33.05;17.48;;;;;;;;;;5064232;28;20308;-63
2022/03/05 01:49:37;;;;;;;30.08;16.27;;;;;;;;;;5063184;28;20515;-62
2022/03/05 01:52:02;;;;;;;30.10;16.23;;;;;;;;;;5063743;28;20012;-63
2022/03/05 01:54:28;;;;;;;33.10;17.20;;;;;;;;;;5058308;28;20423;-62
2022/03/05 01:56:54;;;;;;;31.77;16.77;;;;;;;;;;5062691;28;20031;-63
2022/03/05 01:59:20;;;;;;;30.92;17.08;;;;;;;;;;5064909;28;20379;-62
2022/03/05 02:01:46;;;;;;;33.85;17.88;;;;;;;;;;5045455;28;20098;-63
2022/03/05 02:04:11;;;;;;;31.17;16.90;;;;;;;;;;5064654;28;20494;-62
2022/03/05 02:06:36;;;;;;;29.40;16.52;;;;;;;;;;5063896;28;20021;-63
2022/03/05 02:09:02;;;;;;;31.83;17.88;;;;;;;;;;5062727;28;20107;-63
2022/03/05 02:11:27;;;;;;;32.03;17.88;;;;;;;;;;5060806;28;20069;-62
2022/03/05 02:13:53;;;;;;;33.25;17.58;;;;;;;;;;5065870;28;20090;-62
2022/03/05 02:16:19;;;;;;;33.30;17.55;;;;;;;;;;5065286;28;20191;-62
2022/03/05 02:18:45;;;;;;;30.20;16.55;;;;;;;;;;5063011;28;20460;-62
2022/03/05 02:21:11;;;;;;;34.55;17.75;;;;;;;;;;5065740;28;20070;-62
2022/03/05 02:23:36;;;;;;;32.20;16.67;;;;;;;;;;5063688;28;20091;-63
2022/03/05 02:26:02;;;;;;;32.53;17.35;;;;;;;;;;5062211;28;20363;-63
2022/03/05 02:28:28;;;;;;;30.38;16.45;;;;;;;;;;5062012;28;20021;-63
2022/03/05 02:30:54;;;;;;;33.78;16.98;;;;;;;;;;5063573;28;20467;-63
2022/03/05 02:33:19;;;;;;;34.58;17.60;;;;;;;;;;5064376;28;20450;-62
2022/03/05 02:35:46;;;;;;;31.65;17.83;;;;;;;;;;5060363;28;20399;-62
2022/03/05 02:38:12;;;;;;;30.23;17.02;;;;;;;;;;5064706;28;20056;-61
2022/03/05 02:40:38;;;;;;;30.70;16.48;;;;;;;;;;5046292;28;20044;-62
2022/03/05 02:43:04;;;;;;;30.08;15.77;;;;;;;;;;5042513;28;20090;-62
2022/03/05 02:45:30;;;;;;;31.65;17.02;;;;;;;;;;5046517;28;20118;-62
2022/03/05 02:47:55;;;;;;;31.83;15.93;;;;;;;;;;5043576;28;20068;-63
2022/03/05 02:50:21;;;;;;;33.42;17.45;;;;;;;;;;5042775;28;20025;-62
2022/03/05 02:52:47;;;;;;;34.30;16.98;;;;;;;;;;5024577;28;20674;-62
2022/03/05 02:55:12;;;;;;;33.65;17.10;;;;;;;;;;5039778;28;20035;-63
2022/03/05 02:57:37;;;;;;;31.85;16.10;;;;;;;;;;5039230;28;20117;-62
2022/03/05 03:00:04;;;;;;;31.42;16.60;;;;;;;;;;5042910;28;20486;-62
2022/03/05 03:02:29;;;;;;;34.05;17.92;;;;;;;;;;5041249;28;20490;-61
2022/03/05 03:04:55;;;;;;;33.00;17.17;;;;;;;;;;5042100;28;20045;-62
2022/03/05 03:07:20;;;;;;;32.03;17.15;;;;;;;;;;5043632;28;20108;-62
2022/03/05 03:09:46;;;;;;;36.00;17.83;;;;;;;;;;5037845;28;20434;-62
2022/03/05 03:12:11;;;;;;;32.58;17.52;;;;;;;;;;5039626;28;20109;-61
2022/03/05 03:14:36;;;;;;;34.30;16.58;;;;;;;;;;5042589;28;20484;-61
2022/03/05 03:17:01;;;;;;;32.53;17.08;;;;;;;;;;5042748;28;20247;-63
2022/03/05 03:19:27;;;;;;;30.95;16.70;;;;;;;;;;5043310;28;20028;-62
2022/03/05 03:21:52;;;;;;;32.90;18.30;;;;;;;;;;5041693;28;20056;-62
2022/03/05 03:24:18;;;;;;;32.58;17.70;;;;;;;;;;5039465;28;20021;-62
2022/03/05 03:26:45;;;;;;;34.00;17.60;;;;;;;;;;5039803;28;20033;-62
2022/03/05 03:29:10;;;;;;;36.38;16.92;;;;;;;;;;5043022;28;20435;-62
2022/03/05 03:31:36;;;;;;;34.00;17.92;;;;;;;;;;5043034;28;20032;-62
2022/03/05 03:34:02;;;;;;;34.97;18.42;;;;;;;;;;5042013;28;20025;-62
2022/03/05 03:36:28;;;;;;;32.35;17.65;;;;;;;;;;5041517;28;20075;-63
2022/03/05 03:38:54;;;;;;;33.65;15.48;;;;;;;;;;5040816;28;20058;-62
2022/03/05 03:41:20;;;;;;;34.58;16.92;;;;;;;;;;5041564;28;20060;-62
2022/03/05 03:43:46;;;;;;;37.22;18.13;;;;;;;;;;5040187;28;20817;-62
2022/03/05 03:46:11;;;;;;;34.45;18.10;;;;;;;;;;5024844;28;20128;-62
2022/03/05 03:48:37;;;;;;;32.75;16.73;;;;;;;;;;5041925;28;20017;-61
2022/03/05 03:51:02;;;;;;;35.67;17.85;;;;;;;;;;5042962;28;20054;-62
2022/03/05 03:53:28;;;;;;;32.63;17.63;;;;;;;;;;5043153;28;20047;-61
2022/03/05 03:55:53;;;;;;;33.72;18.27;;;;;;;;;;5039410;28;20098;-61
2022/03/05 03:58:18;;;;;;;34.75;18.98;;;;;;;;;;5042707;28;20125;-62
2022/03/05 04:00:44;;;;;;;31.83;16.80;;;;;;;;;;5042741;28;20033;-61
2022/03/05 04:03:09;;;;;;;33.03;17.23;;;;;;;;;;5043613;28;20065;-62
2022/03/05 04:05:34;;;;;;;35.35;18.35;;;;;;;;;;5040715;28;20035;-61
2022/03/05 04:10:43;;;;;;;33.00;16.92;;;;;;;;;;5037896;28;20051;-62
2022/03/05 04:13:09;;;;;;;33.25;17.33;;;;;;;;;;5041955;28;20029;-62
2022/03/05 04:15:34;;;;;;;35.97;19.05;;;;;;;;;;5042133;28;20391;-62
2022/03/05 04:17:59;;;;;;;32.92;18.35;;;;;;;;;;5045189;28;20217;-62
2022/03/05 04:20:25;;;;;;;35.13;17.23;;;;;;;;;;5048040;28;20025;-62
2022/03/05 04:22:50;;;;;;;37.35;18.75;;;;;;;;;;5049727;28;20040;-62
2022/03/05 04:25:16;;;;;;;35.78;17.67;;;;;;;;;;5065933;28;20024;-62
2022/03/05 04:27:41;;;;;;;36.63;17.98;;;;;;;;;;5043754;28;20040;-62
2022/03/05 04:30:07;;;;;;;31.05;16.83;;;;;;;;;;5045928;28;20463;-62
2022/03/05 04:32:32;;;;;;;35.17;17.55;;;;;;;;;;5044339;28;20272;-62
2022/03/05 04:34:58;;;;;;;35.90;17.30;;;;;;;;;;5044613;28;20154;-61
2022/03/05 04:37:23;;;;;;;36.30;18.33;;;;;;;;;;5045642;28;20036;-62
2022/03/05 04:39:48;;;;;;;34.80;17.77;;;;;;;;;;5042388;28;20064;-62
2022/03/05 04:42:13;;;;;;;36.28;18.65;;;;;;;;;;5042760;28;20040;-62
2022/03/05 04:44:39;;;;;;;34.13;16.95;;;;;;;;;;5045690;28;20040;-62
2022/03/05 04:47:04;;;;;;;37.15;18.23;;;;;;;;;;5045668;28;20243;-62
2022/03/05 04:49:29;;;;;;;31.42;17.08;;;;;;;;;;5045347;28;20557;-62
2022/03/05 04:51:55;;;;;;;34.97;16.98;;;;;;;;;;5043377;28;20033;-62
2022/03/05 04:54:20;;;;;;;37.05;18.63;;;;;;;;;;5027373;28;20484;-62
2022/03/05 04:56:46;;;;;;;34.40;17.85;;;;;;;;;;5038863;28;20017;-62
2022/03/05 04:59:11;;;;;;;33.95;17.65;;;;;;;;;;5045819;28;20091;-62
2022/03/05 05:01:36;;;;;;;38.95;18.30;;;;;;;;;;5042325;28;20206;-62
2022/03/05 05:04:02;;;;;;;38.17;18.10;;;;;;;;;;5027501;28;20523;-61
2022/03/05 05:06:27;;;;;;;36.42;18.80;;;;;;;;;;5044853;28;20017;-62
2022/03/05 05:08:53;;;;;;;37.55;18.35;;;;;;;;;;5041574;28;20091;-62
2022/03/05 05:11:19;;;;;;;38.15;18.55;;;;;;;;;;5024300;28;20388;-63
2022/03/05 05:13:44;;;;;;;38.95;19.73;;;;;;;;;;5041734;28;20090;-62
2022/03/05 05:16:09;;;;;;;37.67;19.02;;;;;;;;;;5043466;28;20352;-62
2022/03/05 05:18:36;;;;;;;36.20;18.08;;;;;;;;;;5042512;28;20028;-62
2022/03/05 05:21:01;;;;;;;37.35;18.17;;;;;;;;;;5042651;28;20025;-62
2022/03/05 05:23:26;;;;;;;39.10;19.08;;;;;;;;;;5045209;28;20036;-62
2022/03/05 05:25:52;;;;;;;35.28;17.77;;;;;;;;;;5038121;28;20029;-62
2022/03/05 05:28:17;;;;;;;38.90;18.50;;;;;;;;;;5043150;28;20028;-62
2022/03/05 05:30:42;;;;;;;36.38;18.50;;;;;;;;;;5042445;28;20036;-62
2022/03/05 05:33:08;;;;;;;34.72;18.13;;;;;;;;;;5044890;28;20029;-61
2022/03/05 05:35:33;;;;;;;37.72;18.85;;;;;;;;;;5042857;28;20586;-62
2022/03/05 05:37:58;;;;;;;37.88;19.25;;;;;;;;;;5042552;28;20198;-62
2022/03/05 05:40:24;;;;;;;38.38;18.08;;;;;;;;;;5040399;28;20582;-63
2022/03/05 05:42:50;;;;;;;33.58;17.60;;;;;;;;;;5022008;28;20530;-61
2022/03/05 05:45:15;;;;;;;42.17;18.90;;;;;;;;;;5028763;28;20391;-62
2022/03/05 05:47:41;;;;;;;38.88;19.70;;;;;;;;;;5042791;28;20025;-62
2022/03/05 05:50:07;;;;;;;40.00;18.48;;;;;;;;;;5027876;28;20482;-62
2022/03/05 05:52:33;;;;;;;39.13;18.90;;;;;;;;;;5044461;28;20443;-62
2022/03/05 05:54:58;;;;;;;39.50;19.13;;;;;;;;;;5041087;28;20530;-63
2022/03/05 05:57:23;;;;;;;37.20;18.38;;;;;;;;;;5040326;28;20079;-61
2022/03/05 05:59:49;;;;;;;37.65;18.92;;;;;;;;;;5042766;28;20025;-61
2022/03/05 06:02:14;;;;;;;38.00;19.27;;;;;;;;;;5043598;28;20598;-61
2022/03/05 06:04:40;;;;;;;34.13;17.38;;;;;;;;;;5045125;28;20055;-61
2022/03/05 06:07:05;;;;;;;39.25;18.90;;;;;;;;;;5024893;28;20029;-61
2022/03/05 06:09:31;;;;;;;41.45;19.52;;;;;;;;;;5040579;28;20518;-61
2022/03/05 06:11:56;;;;;;;41.90;19.13;;;;;;;;;;5038838;28;20387;-62
2022/03/05 06:14:21;;;;;;;41.10;19.52;;;;;;;;;;5044294;28;20029;-62
2022/03/05 06:16:47;;;;;;;40.67;18.42;;;;;;;;;;5041665;28;20177;-62
2022/03/05 06:19:12;;;;;;;40.70;19.88;;;;;;;;;;5043841;28;20094;-61
2022/03/05 06:21:37;;;;;;;43.03;20.13;;;;;;;;;;5042369;28;20029;-62
2022/03/05 06:24:02;;;;;;;36.72;19.45;;;;;;;;;;5042625;28;20481;-62
2022/03/05 06:26:34;;;;;;;39.38;19.20;;;;;;;;;;5039356;28;20387;-62
2022/03/05 06:28:59;;;;;;;42.03;19.88;;;;;;;;;;5041771;28;20120;-61
2022/03/05 06:31:24;;;;;;;42.50;20.15;;;;;;;;;;5043746;28;20039;-63
2022/03/05 06:33:50;;;;;;;38.25;18.88;;;;;;;;;;5043198;28;20120;-62
2022/03/05 06:36:15;;;;;;;41.65;19.90;;;;;;;;;;5042354;28;20035;-61
2022/03/05 06:38:41;;;;;;;44.13;20.95;;;;;;;;;;5044681;28;20021;-61
2022/03/05 06:41:07;;;;;;;49.35;21.20;;;;;;;;;;5037258;28;20525;-62
2022/03/05 06:43:32;;;;;;;41.75;20.55;;;;;;;;;;5041444;28;20025;-62
2022/03/05 06:45:57;;;;;;;45.22;20.83;;;;;;;;;;5041295;28;20018;-62
2022/03/05 06:48:23;;;;;;;41.97;21.40;;;;;;;;;;5043640;28;20515;-63
2022/03/05 06:50:48;;;;;;;39.90;19.45;;;;;;;;;;5040300;28;20021;-61
2022/03/05 06:53:13;;;;;;;43.75;20.30;;;;;;;;;;5042549;28;20120;-62
2022/03/05 06:55:39;;;;;;;41.60;19.95;;;;;;;;;;5039782;28;20029;-61
2022/03/05 06:58:04;;;;;;;41.35;20.02;;;;;;;;;;5040157;28;20308;-62
2022/03/05 07:00:29;;;;;;;40.40;20.38;;;;;;;;;;5042909;28;20073;-62
2022/03/05 07:02:54;;;;;;;42.03;21.08;;;;;;;;;;5041595;28;20027;-61
2022/03/05 07:05:20;;;;;;;41.53;19.13;;;;;;;;;;5045739;28;20021;-62
2022/03/05 07:07:46;;;;;;;38.97;19.75;;;;;;;;;;5026186;28;20021;-61
2022/03/05 07:10:12;;;;;;;43.28;19.17;;;;;;;;;;5023414;28;20025;-61
2022/03/05 07:12:38;;;;;;;41.58;20.63;;;;;;;;;;5039122;28;20108;-62
2022/03/05 07:15:04;;;;;;;41.35;19.17;;;;;;;;;;5042999;28;20021;-61
2022/03/05 07:17:29;;;;;;;41.25;20.65;;;;;;;;;;5043784;28;20032;-62
2022/03/05 07:19:55;;;;;;;43.60;21.55;;;;;;;;;;5042164;28;20364;-62
2022/03/05 07:22:21;;;;;;;41.75;21.17;;;;;;;;;;5043679;28;20464;-61
2022/03/05 07:24:46;;;;;;;42.22;21.42;;;;;;;;;;5040996;28;20450;-62
2022/03/05 07:27:12;;;;;;;42.53;20.50;;;;;;;;;;5020176;28;20029;-63
2022/03/05 07:29:37;;;;;;;44.88;21.38;;;;;;;;;;5044089;28;20094;-62
2022/03/05 07:32:03;;;;;;;42.05;20.70;;;;;;;;;;5042753;28;20017;-62
2022/03/05 07:34:29;;;;;;;41.95;21.23;;;;;;;;;;5044082;28;21122;-62
2022/03/05 07:36:54;;;;;;;43.13;20.83;;;;;;;;;;5043109;28;20025;-62
2022/03/05 07:39:20;;;;;;;41.58;20.77;;;;;;;;;;5043092;28;20109;-62
2022/03/05 07:41:45;;;;;;;47.63;22.17;;;;;;;;;;5021843;28;20029;-63
2022/03/05 07:44:11;;;;;;;47.60;22.25;;;;;;;;;;5043163;28;20057;-62
2022/03/05 07:46:36;;;;;;;45.42;21.30;;;;;;;;;;5043911;28;20028;-63
2022/03/05 07:49:01;;;;;;;45.60;21.48;;;;;;;;;;5040412;28;20025;-62
2022/03/05 07:51:27;;;;;;;43.30;20.70;;;;;;;;;;5044276;28;20117;-61
2022/03/05 07:53:52;;;;;;;45.80;23.20;;;;;;;;;;5045187;28;20025;-62
2022/03/05 07:56:37;;;;;;;48.28;23.45;;;;;;;;;;5042664;28;20275;-62
2022/03/05 07:59:03;;;;;;;43.75;20.92;;;;;;;;;;5043869;28;20029;-62
2022/03/05 08:01:28;;;;;;;43.72;22.83;;;;;;;;;;5059212;28;20090;-61
2022/03/05 08:03:54;;;;;;;38.38;20.83;;;;;;;;;;5065488;28;20039;-61
2022/03/05 08:06:19;;;;;;;47.78;22.65;;;;;;;;;;5048489;28;20033;-62
2022/03/05 08:08:46;;;;;;;44.78;21.88;;;;;;;;;;5066670;28;20059;-63
2022/03/05 08:11:11;;;;;;;43.83;22.27;;;;;;;;;;5060842;28;20033;-63
2022/03/05 08:13:37;;;;;;;46.20;21.73;;;;;;;;;;5064634;28;20043;-62
2022/03/05 08:16:02;;;;;;;46.33;23.08;;;;;;;;;;5063849;28;20028;-61
2022/03/05 08:18:27;;;;;;;44.90;22.38;;;;;;;;;;5066216;28;20032;-62
2022/03/05 08:20:53;;;;;;;45.08;22.58;;;;;;;;;;5066098;28;20036;-61
2022/03/05 08:23:19;;;;;;;40.55;22.23;;;;;;;;;;5047600;28;20032;-60
2022/03/05 08:25:44;;;;;;;43.65;22.05;;;;;;;;;;5063787;28;20040;-62
2022/03/05 08:28:10;;;;;;;40.88;21.50;;;;;;;;;;5063105;28;20111;-61
2022/03/05 08:30:35;;;;;;;45.33;23.38;;;;;;;;;;5064728;28;20047;-61
2022/03/05 08:33:00;;;;;;;43.85;22.42;;;;;;;;;;5064955;28;20483;-61
2022/03/05 08:35:26;;;;;;;46.72;22.85;;;;;;;;;;5065401;28;20020;-61
2022/03/05 08:37:51;;;;;;;45.42;21.98;;;;;;;;;;5066279;28;20544;-61
2022/03/05 08:40:18;;;;;;;43.13;22.73;;;;;;;;;;5043535;28;20289;-62
2022/03/05 08:42:44;;;;;;;45.10;23.77;;;;;;;;;;5043606;28;20025;-61
2022/03/05 08:45:10;;;;;;;47.58;23.85;;;;;;;;;;5044967;28;20082;-61
2022/03/05 08:47:35;;;;;;;42.67;22.90;;;;;;;;;;5044897;28;20064;-62
2022/03/05 08:50:00;;;;;;;42.92;22.67;;;;;;;;;;5044647;28;20021;-61
2022/03/05 08:52:28;;;;;;;43.28;22.90;;;;;;;;;;5045812;28;20465;-61
2022/03/05 08:54:55;;;;;;;43.33;24.27;;;;;;;;;;5044455;28;20044;-62
2022/03/05 08:57:20;;;;;;;44.88;24.10;;;;;;;;;;5039757;28;20063;-63
2022/03/05 08:59:46;;;;;;;45.22;23.13;;;;;;;;;;5044702;28;20052;-61
2022/03/05 09:02:11;;;;;;;40.92;22.08;;;;;;;;;;5044247;28;20020;-62
2022/03/05 09:04:36;;;;;;;41.83;21.58;;;;;;;;;;5049241;28;20442;-62
2022/03/05 09:07:02;;;;;;;42.67;22.50;;;;;;;;;;5043113;28;20021;-62
2022/03/05 09:09:27;;;;;;;41.47;21.92;;;;;;;;;;5043850;28;20127;-63
2022/03/05 09:11:52;;;;;;;41.08;22.20;;;;;;;;;;5041037;28;20341;-62
2022/03/05 09:14:18;;;;;;;44.60;24.05;;;;;;;;;;5043242;28;20029;-61
2022/03/05 09:16:43;;;;;;;43.10;23.42;;;;;;;;;;5045534;28;20487;-61
2022/03/05 09:19:08;;;;;;;39.20;22.13;;;;;;;;;;5043203;28;20023;-63
2022/03/05 09:21:34;;;;;;;41.03;22.88;;;;;;;;;;5044174;28;20087;-61
2022/03/05 09:24:02;;;;;;;42.72;23.38;;;;;;;;;;5040395;28;20025;-62
2022/03/05 09:26:28;;;;;;;42.63;23.92;;;;;;;;;;5040882;28;20396;-61
2022/03/05 09:28:53;;;;;;;42.65;23.27;;;;;;;;;;5044981;28;20017;-62
2022/03/05 09:31:18;;;;;;;47.78;24.20;;;;;;;;;;5042162;28;20484;-62
2022/03/05 09:33:44;;;;;;;41.10;23.75;;;;;;;;;;5042520;28;20515;-62
2022/03/05 09:36:10;;;;;;;40.92;23.42;;;;;;;;;;5041313;28;21011;-63
2022/03/05 09:38:35;;;;;;;43.75;23.55;;;;;;;;;;5045353;28;20024;-64
2022/03/05 09:41:02;;;;;;;45.20;24.63;;;;;;;;;;5038452;28;20083;-62
2022/03/05 09:43:27;;;;;;;41.80;23.83;;;;;;;;;;5023679;28;20463;-62
2022/03/05 09:45:53;;;;;;;41.85;23.73;;;;;;;;;;5044053;28;20086;-63
2022/03/05 09:48:18;;;;;;;47.80;24.52;;;;;;;;;;5045736;28;20075;-63
2022/03/05 09:50:44;;;;;;;45.20;24.48;;;;;;;;;;5043552;28;20063;-63
2022/03/05 09:53:09;;;;;;;43.30;23.67;;;;;;;;;;5043951;28;20367;-62
2022/03/05 09:55:35;;;;;;;44.05;25.45;;;;;;;;;;5038695;28;20478;-62
2022/03/05 09:58:01;;;;;;;40.00;22.77;;;;;;;;;;5040757;28;20025;-63
2022/03/05 10:00:26;;;;;;;44.55;24.88;;;;;;;;;;5025883;28;20563;-63
2022/03/05 10:02:52;;;;;;;48.78;25.40;;;;;;;;;;5044244;28;20107;-64
2022/03/05 10:05:18;;;;;;;40.72;24.52;;;;;;;;;;5042061;28;20108;-63
2022/03/05 10:08:07;;;;;;;43.45;24.25;;;;;;;;;;5043714;28;20428;-63
2022/03/05 10:10:39;;;;;;;42.42;23.95;;;;;;;;;;5038855;28;20032;-62
2022/03/05 10:13:23;;;;;;;41.22;24.88;;;;;;;;;;5040406;28;20029;-61
2022/03/05 10:15:49;;;;;;;41.25;24.13;;;;;;;;;;5044876;28;20044;-63
2022/03/05 10:18:14;;;;;;;42.70;24.50;;;;;;;;;;5042665;28;20467;-63
2022/03/05 10:20:44;;;;;;;42.97;25.05;;;;;;;;;;5045266;28;20037;-62
2022/03/05 10:23:10;;;;;;;41.28;24.55;;;;;;;;;;5042626;28;20446;-63
2022/03/05 10:25:37;;;;;;;40.05;23.65;;;;;;;;;;5040346;28;20029;-64
2022/03/05 10:28:11;;;;;;;42.83;25.63;;;;;;;;;;5042749;28;20056;-62
2022/03/05 10:30:38;;;;;;;42.83;24.08;;;;;;;;;;5043626;28;20360;-63
2022/03/05 10:33:04;;;;;;;39.47;24.08;;;;;;;;;;5045035;28;20356;-63
2022/03/05 10:35:30;;;;;;;40.22;23.65;;;;;;;;;;5026165;28;20037;-63
2022/03/05 10:37:55;;;;;;;40.30;23.92;;;;;;;;;;5044577;28;20091;-63
2022/03/05 10:40:32;;;;;;;41.92;25.05;;;;;;;;;;5040176;28;20047;-62
2022/03/05 10:42:58;;;;;;;42.55;25.30;;;;;;;;;;5042311;28;20393;-63
2022/03/05 10:45:23;;;;;;;40.70;24.90;;;;;;;;;;5041353;28;20511;-63
2022/03/05 10:47:48;;;;;;;41.60;24.60;;;;;;;;;;5044900;28;20021;-63
2022/03/05 10:50:25;;;;;;;42.53;24.85;;;;;;;;;;5039488;28;20514;-63
2022/03/05 10:53:02;;;;;;;42.55;24.88;;;;;;;;;;5043107;28;20056;-62
2022/03/05 10:55:36;;;;;;;45.42;25.60;;;;;;;;;;5037868;28;20205;-62
2022/03/05 10:58:03;;;;;;;41.45;25.05;;;;;;;;;;5041336;28;20025;-62
2022/03/05 11:00:29;;;;;;;42.78;25.88;;;;;;;;;;5041932;28;20029;-64
2022/03/05 11:02:55;;;;;;;42.63;25.35;;;;;;;;;;5043282;28;20104;-62
2022/03/05 11:05:24;;;;;;;42.75;25.00;;;;;;;;;;5041079;28;20032;-62
2022/03/05 11:07:49;;;;;;;41.47;25.27;;;;;;;;;;5043108;28;20411;-63
2022/03/05 11:10:20;;;;;;;43.97;25.92;;;;;;;;;;5038422;28;20471;-62
2022/03/05 11:12:51;;;;;;;41.55;24.95;;;;;;;;;;5036494;28;20548;-62
2022/03/05 11:15:16;;;;;;;42.47;25.10;;;;;;;;;;5041230;28;20048;-62
2022/03/05 11:17:42;;;;;;;41.45;25.25;;;;;;;;;;5041611;28;20411;-62
2022/03/05 11:20:08;;;;;;;43.17;25.23;;;;;;;;;;5047312;28;20439;-61
2022/03/05 11:22:33;;;;;;;45.97;25.95;;;;;;;;;;5021946;28;20098;-62
2022/03/05 11:24:58;;;;;;;43.30;26.50;;;;;;;;;;5041461;28;20029;-62
2022/03/05 11:27:23;;;;;;;42.50;25.60;;;;;;;;;;5037873;28;20137;-62
2022/03/05 11:29:59;;;;;;;44.30;26.33;;;;;;;;;;5042392;28;20142;-62
2022/03/05 11:32:32;;;;;;;42.10;25.45;;;;;;;;;;5041300;28;20104;-62
2022/03/05 11:34:57;;;;;;;42.85;26.17;;;;;;;;;;5043275;28;20096;-63
2022/03/05 11:37:30;;;;;;;45.28;25.42;;;;;;;;;;5040038;28;20336;-62
2022/03/05 11:39:55;;;;;;;41.97;24.95;;;;;;;;;;5040651;28;20060;-62
2022/03/05 11:42:28;;;;;;;40.95;25.95;;;;;;;;;;5035681;28;20088;-61
2022/03/05 11:44:53;;;;;;;43.70;25.98;;;;;;;;;;5043116;28;20047;-61
2022/03/05 11:47:19;;;;;;;41.70;25.67;;;;;;;;;;5039106;28;20037;-61
2022/03/05 11:49:58;;;;;;;44.13;26.65;;;;;;;;;;5042552;28;20028;-62
2022/03/05 11:52:43;;;;;;;45.80;26.33;;;;;;;;;;5040661;28;20024;-63
2022/03/05 11:55:14;;;;;;;44.08;26.23;;;;;;;;;;5040089;28;20061;-61
2022/03/05 11:57:51;;;;;;;39.35;25.35;;;;;;;;;;5041322;28;20028;-63
2022/03/05 12:00:26;;;;;;;45.45;25.88;;;;;;;;;;5042269;28;20028;-62
2022/03/05 12:02:54;;;;;;;42.70;26.33;;;;;;;;;;5043890;28;20016;-62
2022/03/05 12:05:38;;;;;;;41.75;26.20;;;;;;;;;;5040270;28;20171;-62
2022/03/05 12:08:33;;;;;;;41.08;25.55;;;;;;;;;;5042539;28;20021;-62
2022/03/05 12:11:12;;;;;;;47.60;27.10;;;;;;;;;;5031197;28;20438;-63
2022/03/05 12:13:41;;;;;;;48.78;27.23;;;;;;;;;;5022173;28;20043;-62
2022/03/05 12:16:20;;;;;;;49.47;28.23;;;;;;;;;;5040336;28;20380;-61
2022/03/05 12:18:46;;;;;;;44.35;27.42;;;;;;;;;;5023862;28;20043;-61
2022/03/05 12:21:12;;;;;;;43.38;26.23;;;;;;;;;;5041750;28;20029;-62
2022/03/05 12:23:38;;;;;;;45.78;27.80;;;;;;;;;;5022779;28;20478;-62
2022/03/05 12:26:04;;;;;;;48.83;26.35;;;;;;;;;;5037887;28;20049;-61
2022/03/05 12:28:36;;;;;;;45.65;27.35;;;;;;;;;;5038995;28;20104;-62
2022/03/05 12:31:01;;;;;;;43.90;26.92;;;;;;;;;;5042251;28;20025;-62
2022/03/05 12:33:26;;;;;;;44.55;28.00;;;;;;;;;;5041061;28;20025;-63
2022/03/05 12:35:52;;;;;;;45.88;27.25;;;;;;;;;;5043037;28;20029;-63
2022/03/05 12:38:18;;;;;;;42.78;27.15;;;;;;;;;;5043973;28;20549;-63
2022/03/05 12:40:44;;;;;;;46.85;27.13;;;;;;;;;;5037659;28;20236;-62
2022/03/05 12:43:09;;;;;;;40.58;25.65;;;;;;;;;;5044618;28;20108;-62
2022/03/05 12:45:39;;;;;;;47.83;28.48;;;;;;;;;;5041993;28;20364;-61
2022/03/05 12:48:12;;;;;;;41.90;27.00;;;;;;;;;;5044950;28;20490;-62
2022/03/05 12:50:41;;;;;;;42.30;27.15;;;;;;;;;;5041983;28;20514;-61
2022/03/05 12:53:17;;;;;;;43.70;27.80;;;;;;;;;;5045744;28;20029;-62
2022/03/05 12:55:44;;;;;;;46.47;27.85;;;;;;;;;;5039278;28;20446;-62
2022/03/05 12:58:10;;;;;;;44.33;27.50;;;;;;;;;;5045240;28;20077;-61
2022/03/05 13:00:36;;;;;;;45.53;28.10;;;;;;;;;;5043258;28;20064;-61
2022/03/05 13:03:01;;;;;;;47.50;28.63;;;;;;;;;;5044734;28;20071;-63
2022/03/05 13:05:27;;;;;;;41.92;27.17;;;;;;;;;;5041041;28;20025;-62
2022/03/05 13:07:52;;;;;;;45.33;27.83;;;;;;;;;;5045330;28;20170;-62
2022/03/05 13:10:18;;;;;;;44.72;27.08;;;;;;;;;;5041466;28;20036;-61
2022/03/05 13:12:44;;;;;;;44.28;28.13;;;;;;;;;;5057882;28;20027;-62
2022/03/05 13:15:20;;;;;;;45.50;28.13;;;;;;;;;;5065155;28;20552;-62
2022/03/05 13:17:46;;;;;;;46.83;28.13;;;;;;;;;;5062029;28;20021;-62
2022/03/05 13:20:16;;;;;;;46.88;28.30;;;;;;;;;;5064576;28;20039;-62
2022/03/05 13:22:42;;;;;;;45.95;28.48;;;;;;;;;;5060900;28;20349;-62
2022/03/05 13:25:08;;;;;;;45.78;28.67;;;;;;;;;;5062515;28;20084;-63
2022/03/05 13:27:33;;;;;;;42.95;27.98;;;;;;;;;;5059958;28;20020;-63
2022/03/05 13:30:06;;;;;;;46.08;28.95;;;;;;;;;;5062873;28;20479;-62
2022/03/05 13:32:41;;;;;;;44.65;27.00;;;;;;;;;;5061921;28;20078;-62
2022/03/05 13:35:07;;;;;;;43.40;28.30;;;;;;;;;;5049592;28;20052;-61
2022/03/05 13:37:35;;;;;;;43.55;26.98;;;;;;;;;;5023014;28;20480;-63
2022/03/05 13:40:01;;;;;;;42.40;28.58;;;;;;;;;;5043850;28;20128;-63
2022/03/05 13:42:31;;;;;;;43.67;28.63;;;;;;;;;;5055930;28;20063;-63
2022/03/05 13:44:58;;;;;;;44.40;28.02;;;;;;;;;;5065029;28;20052;-62
2022/03/05 13:47:25;;;;;;;42.25;28.13;;;;;;;;;;5061661;28;20016;-62
2022/03/05 13:49:50;;;;;;;43.10;27.17;;;;;;;;;;5043142;28;20357;-63
2022/03/05 13:52:19;;;;;;;44.38;26.33;;;;;;;;;;5044060;28;20356;-62
2022/03/05 13:54:48;;;;;;;39.67;25.85;;;;;;;;;;5037638;28;20140;-62
2022/03/05 13:57:24;;;;;;;41.28;26.05;;;;;;;;;;5040425;28;20530;-62
2022/03/05 13:59:50;;;;;;;37.90;25.42;;;;;;;;;;5042963;28;20287;-63
2022/03/05 14:02:16;;;;;;;36.97;25.73;;;;;;;;;;5043074;28;20479;-62
2022/03/05 14:04:56;;;;;;;38.30;24.08;;;;;;;;;;5042600;28;20114;-61
2022/03/05 14:07:22;;;;;;;37.15;24.08;;;;;;;;;;5042763;28;20017;-61
2022/03/05 14:09:47;;;;;;;38.22;26.13;;;;;;;;;;5038934;28;20124;-63
2022/03/05 14:12:14;;;;;;;40.42;26.02;;;;;;;;;;5041056;28;20036;-62
2022/03/05 14:14:50;;;;;;;41.22;27.55;;;;;;;;;;5042398;28;20052;-62